sensor_id;sensor_type;location;lat;lon;timestamp;P1;durP1;ratioP1;P2;durP2;ratioP2
50779;SDS011;36748;37.428;-121.972;2023-10-13T00:00:37;9.07;;;1.42;;
50779;SDS011;36748;37.428;-121.972;2023-10-13T00:03:07;10.15;;;1.83;;
50779;SDS011;36748;37.428;-121.972;2023-10-13T00:05:40;5.97;;;1.73;;
50779;SDS011;36748;37.428;-121.972;2023-10-13T00:08:08;7.95;;;1.80;;
50779;SDS011;36748;37.428;-121.972;2023-10-13T00:10:35;12.02;;;1.60;;
50779;SDS011;36748;37.428;-121.972;2023-10-13T00:13:01;6.38;;;1.65;;
50779;SDS011;36748;37.428;-121.972;2023-10-13T00:15:44;7.93;;;1.50;;
50779;SDS011;36748;37.428;-121.972;2023-10-13T00:18:24;6.75;;;1.52;;
50779;SDS011;36748;37.428;-121.972;2023-10-13T00:20:59;6.35;;;2.08;;
50779;SDS011;36748;37.428;-121.972;2023-10-13T00:23:50;3.83;;;1.65;;
50779;SDS011;36748;37.428;-121.972;2023-10-13T00:26:20;5.05;;;1.48;;
50779;SDS011;36748;37.428;-121.972;2023-10-13T00:28:53;24.27;;;2.20;;
50779;SDS011;36748;37.428;-121.972;2023-10-13T00:31:38;4.47;;;1.60;;
50779;SDS011;36748;37.428;-121.972;2023-10-13T00:34:08;6.80;;;1.67;;
50779;SDS011;36748;37.428;-121.972;2023-10-13T00:36:45;8.52;;;2.00;;
50779;SDS011;36748;37.428;-121.972;2023-10-13T00:39:34;5.65;;;1.70;;
50779;SDS011;36748;37.428;-121.972;2023-10-13T00:42:09;4.90;;;1.73;;
50779;SDS011;36748;37.428;-121.972;2023-10-13T00:44:44;8.30;;;1.83;;
50779;SDS011;36748;37.428;-121.972;2023-10-13T00:47:17;6.88;;;1.77;;
50779;SDS011;36748;37.428;-121.972;2023-10-13T00:50:02;8.05;;;1.90;;
50779;SDS011;36748;37.428;-121.972;2023-10-13T00:52:30;5.63;;;1.85;;
50779;SDS011;36748;37.428;-121.972;2023-10-13T00:54:58;8.40;;;1.52;;
50779;SDS011;36748;37.428;-121.972;2023-10-13T00:57:25;6.22;;;1.83;;
50779;SDS011;36748;37.428;-121.972;2023-10-13T00:59:52;7.95;;;1.90;;
50779;SDS011;36748;37.428;-121.972;2023-10-13T01:02:19;9.73;;;1.60;;
50779;SDS011;36748;37.428;-121.972;2023-10-13T01:05:03;8.43;;;1.60;;
50779;SDS011;36748;37.428;-121.972;2023-10-13T01:07:45;11.40;;;1.65;;
50779;SDS011;36748;37.428;-121.972;2023-10-13T01:10:15;9.25;;;1.77;;
50779;SDS011;36748;37.428;-121.972;2023-10-13T01:12:42;7.93;;;1.65;;
50779;SDS011;36748;37.428;-121.972;2023-10-13T01:15:09;8.88;;;1.60;;
50779;SDS011;36748;37.428;-121.972;2023-10-13T01:17:37;4.55;;;1.13;;
50779;SDS011;36748;37.428;-121.972;2023-10-13T01:20:05;6.88;;;1.50;;
50779;SDS011;36748;37.428;-121.972;2023-10-13T01:22:33;8.38;;;1.77;;
50779;SDS011;36748;37.428;-121.972;2023-10-13T01:25:08;4.30;;;1.35;;
50779;SDS011;36748;37.428;-121.972;2023-10-13T01:27:54;10.38;;;1.73;;
50779;SDS011;36748;37.428;-121.972;2023-10-13T01:30:20;10.90;;;1.98;;
50779;SDS011;36748;37.428;-121.972;2023-10-13T01:32:52;7.10;;;1.73;;
50779;SDS011;36748;37.428;-121.972;2023-10-13T01:35:19;8.93;;;1.80;;
50779;SDS011;36748;37.428;-121.972;2023-10-13T01:38:01;8.50;;;2.00;;
50779;SDS011;36748;37.428;-121.972;2023-10-13T01:40:28;8.55;;;1.65;;
50779;SDS011;36748;37.428;-121.972;2023-10-13T01:42:59;7.57;;;1.55;;
50779;SDS011;36748;37.428;-121.972;2023-10-13T01:45:25;10.05;;;1.55;;
50779;SDS011;36748;37.428;-121.972;2023-10-13T01:47:56;6.45;;;1.50;;
50779;SDS011;36748;37.428;-121.972;2023-10-13T01:50:23;4.63;;;1.35;;
50779;SDS011;36748;37.428;-121.972;2023-10-13T01:52:55;5.32;;;1.50;;
50779;SDS011;36748;37.428;-121.972;2023-10-13T01:55:41;4.95;;;1.50;;
50779;SDS011;36748;37.428;-121.972;2023-10-13T01:58:10;3.80;;;1.27;;
50779;SDS011;36748;37.428;-121.972;2023-10-13T02:00:41;4.63;;;1.50;;
50779;SDS011;36748;37.428;-121.972;2023-10-13T02:03:13;7.53;;;1.77;;
50779;SDS011;36748;37.428;-121.972;2023-10-13T02:05:42;4.20;;;1.40;;
50779;SDS011;36748;37.428;-121.972;2023-10-13T02:08:13;4.38;;;1.35;;
50779;SDS011;36748;37.428;-121.972;2023-10-13T02:13:18;8.43;;;1.33;;
50779;SDS011;36748;37.428;-121.972;2023-10-13T02:15:46;6.03;;;1.50;;
50779;SDS011;36748;37.428;-121.972;2023-10-13T02:18:14;11.93;;;1.42;;
50779;SDS011;36748;37.428;-121.972;2023-10-13T02:21:07;10.25;;;1.40;;
50779;SDS011;36748;37.428;-121.972;2023-10-13T02:23:43;6.90;;;1.50;;
50779;SDS011;36748;37.428;-121.972;2023-10-13T02:26:13;6.05;;;1.25;;
50779;SDS011;36748;37.428;-121.972;2023-10-13T02:28:42;4.88;;;1.50;;
50779;SDS011;36748;37.428;-121.972;2023-10-13T02:31:16;3.50;;;1.33;;
50779;SDS011;36748;37.428;-121.972;2023-10-13T02:33:44;8.70;;;2.00;;
50779;SDS011;36748;37.428;-121.972;2023-10-13T02:36:10;7.05;;;1.52;;
50779;SDS011;36748;37.428;-121.972;2023-10-13T02:38:37;8.70;;;1.70;;
50779;SDS011;36748;37.428;-121.972;2023-10-13T02:41:09;6.15;;;1.75;;
50779;SDS011;36748;37.428;-121.972;2023-10-13T02:43:37;5.15;;;1.65;;
50779;SDS011;36748;37.428;-121.972;2023-10-13T02:46:03;2.33;;;1.20;;
50779;SDS011;36748;37.428;-121.972;2023-10-13T02:48:30;3.30;;;1.50;;
50779;SDS011;36748;37.428;-121.972;2023-10-13T02:53:44;3.35;;;1.45;;
50779;SDS011;36748;37.428;-121.972;2023-10-13T02:56:18;6.00;;;1.85;;
50779;SDS011;36748;37.428;-121.972;2023-10-13T02:58:48;6.85;;;2.00;;
50779;SDS011;36748;37.428;-121.972;2023-10-13T03:01:35;7.47;;;2.00;;
50779;SDS011;36748;37.428;-121.972;2023-10-13T03:04:02;4.93;;;1.70;;
50779;SDS011;36748;37.428;-121.972;2023-10-13T03:06:34;6.38;;;1.92;;
50779;SDS011;36748;37.428;-121.972;2023-10-13T03:09:04;4.25;;;1.42;;
50779;SDS011;36748;37.428;-121.972;2023-10-13T03:11:44;4.97;;;1.95;;
50779;SDS011;36748;37.428;-121.972;2023-10-13T03:14:17;3.53;;;1.67;;
50779;SDS011;36748;37.428;-121.972;2023-10-13T03:17:00;6.50;;;1.83;;
50779;SDS011;36748;37.428;-121.972;2023-10-13T03:19:28;4.38;;;1.80;;
50779;SDS011;36748;37.428;-121.972;2023-10-13T03:22:04;3.60;;;1.38;;
50779;SDS011;36748;37.428;-121.972;2023-10-13T03:24:35;3.35;;;1.35;;
50779;SDS011;36748;37.428;-121.972;2023-10-13T03:27:02;3.35;;;1.85;;
50779;SDS011;36748;37.428;-121.972;2023-10-13T03:29:38;4.00;;;1.67;;
50779;SDS011;36748;37.428;-121.972;2023-10-13T03:32:11;4.50;;;1.67;;
50779;SDS011;36748;37.428;-121.972;2023-10-13T03:34:44;4.03;;;1.50;;
50779;SDS011;36748;37.428;-121.972;2023-10-13T03:37:17;3.53;;;1.50;;
50779;SDS011;36748;37.428;-121.972;2023-10-13T03:40:01;2.95;;;1.35;;
50779;SDS011;36748;37.428;-121.972;2023-10-13T03:42:32;3.50;;;1.60;;
50779;SDS011;36748;37.428;-121.972;2023-10-13T03:44:58;3.53;;;1.52;;
50779;SDS011;36748;37.428;-121.972;2023-10-13T03:47:24;4.38;;;1.40;;
50779;SDS011;36748;37.428;-121.972;2023-10-13T03:49:57;4.80;;;1.65;;
50779;SDS011;36748;37.428;-121.972;2023-10-13T03:52:47;2.83;;;1.20;;
50779;SDS011;36748;37.428;-121.972;2023-10-13T03:55:14;5.20;;;1.30;;
50779;SDS011;36748;37.428;-121.972;2023-10-13T03:57:43;3.20;;;1.48;;
50779;SDS011;36748;37.428;-121.972;2023-10-13T04:00:11;3.47;;;1.40;;
50779;SDS011;36748;37.428;-121.972;2023-10-13T04:02:51;5.10;;;1.50;;
50779;SDS011;36748;37.428;-121.972;2023-10-13T04:05:41;6.88;;;1.60;;
50779;SDS011;36748;37.428;-121.972;2023-10-13T04:08:11;7.20;;;1.60;;
50779;SDS011;36748;37.428;-121.972;2023-10-13T04:10:53;4.35;;;1.50;;
50779;SDS011;36748;37.428;-121.972;2023-10-13T04:13:20;4.05;;;1.23;;
50779;SDS011;36748;37.428;-121.972;2023-10-13T04:16:09;5.32;;;1.33;;
50779;SDS011;36748;37.428;-121.972;2023-10-13T04:18:47;5.80;;;1.27;;
50779;SDS011;36748;37.428;-121.972;2023-10-13T04:21:16;7.20;;;1.70;;
50779;SDS011;36748;37.428;-121.972;2023-10-13T04:24:01;6.70;;;1.30;;
50779;SDS011;36748;37.428;-121.972;2023-10-13T04:26:48;12.77;;;1.80;;
50779;SDS011;36748;37.428;-121.972;2023-10-13T04:29:33;9.70;;;1.63;;
50779;SDS011;36748;37.428;-121.972;2023-10-13T04:32:34;9.63;;;1.60;;
50779;SDS011;36748;37.428;-121.972;2023-10-13T04:35:20;12.60;;;1.85;;
50779;SDS011;36748;37.428;-121.972;2023-10-13T04:37:49;5.20;;;1.42;;
50779;SDS011;36748;37.428;-121.972;2023-10-13T04:40:20;12.43;;;1.90;;
50779;SDS011;36748;37.428;-121.972;2023-10-13T04:42:50;8.02;;;1.67;;
50779;SDS011;36748;37.428;-121.972;2023-10-13T04:45:25;17.92;;;1.75;;
50779;SDS011;36748;37.428;-121.972;2023-10-13T04:48:01;6.60;;;1.58;;
50779;SDS011;36748;37.428;-121.972;2023-10-13T04:50:44;7.72;;;1.45;;
50779;SDS011;36748;37.428;-121.972;2023-10-13T04:53:17;7.65;;;1.50;;
50779;SDS011;36748;37.428;-121.972;2023-10-13T04:55:54;6.63;;;1.67;;
50779;SDS011;36748;37.428;-121.972;2023-10-13T04:58:30;2.95;;;1.20;;
50779;SDS011;36748;37.428;-121.972;2023-10-13T05:01:02;5.32;;;1.60;;
50779;SDS011;36748;37.428;-121.972;2023-10-13T05:03:46;6.28;;;1.55;;
50779;SDS011;36748;37.428;-121.972;2023-10-13T05:06:31;3.67;;;1.08;;
50779;SDS011;36748;37.428;-121.972;2023-10-13T05:09:13;6.78;;;1.65;;
50779;SDS011;36748;37.428;-121.972;2023-10-13T05:11:57;4.28;;;1.55;;
50779;SDS011;36748;37.428;-121.972;2023-10-13T05:14:42;7.65;;;1.52;;
50779;SDS011;36748;37.428;-121.972;2023-10-13T05:17:27;9.35;;;1.63;;
50779;SDS011;36748;37.428;-121.972;2023-10-13T05:20:11;7.53;;;1.67;;
50779;SDS011;36748;37.428;-121.972;2023-10-13T05:22:56;5.22;;;1.40;;
50779;SDS011;36748;37.428;-121.972;2023-10-13T05:25:40;9.70;;;1.77;;
50779;SDS011;36748;37.428;-121.972;2023-10-13T05:28:25;7.55;;;1.45;;
50779;SDS011;36748;37.428;-121.972;2023-10-13T05:31:09;10.75;;;1.80;;
50779;SDS011;36748;37.428;-121.972;2023-10-13T05:33:54;4.80;;;1.90;;
50779;SDS011;36748;37.428;-121.972;2023-10-13T05:36:38;3.45;;;1.65;;
50779;SDS011;36748;37.428;-121.972;2023-10-13T05:39:25;11.10;;;2.17;;
50779;SDS011;36748;37.428;-121.972;2023-10-13T05:42:09;12.13;;;2.30;;
50779;SDS011;36748;37.428;-121.972;2023-10-13T05:44:53;15.52;;;2.45;;
50779;SDS011;36748;37.428;-121.972;2023-10-13T05:47:38;9.55;;;2.08;;
50779;SDS011;36748;37.428;-121.972;2023-10-13T05:50:07;10.98;;;1.95;;
50779;SDS011;36748;37.428;-121.972;2023-10-13T05:52:47;10.95;;;2.30;;
50779;SDS011;36748;37.428;-121.972;2023-10-13T05:55:19;11.82;;;2.47;;
50779;SDS011;36748;37.428;-121.972;2023-10-13T05:58:03;13.48;;;2.38;;
50779;SDS011;36748;37.428;-121.972;2023-10-13T06:00:48;12.52;;;2.13;;
50779;SDS011;36748;37.428;-121.972;2023-10-13T06:03:32;11.40;;;2.35;;
50779;SDS011;36748;37.428;-121.972;2023-10-13T06:06:17;13.40;;;2.83;;
50779;SDS011;36748;37.428;-121.972;2023-10-13T06:09:01;10.35;;;2.42;;
50779;SDS011;36748;37.428;-121.972;2023-10-13T06:11:46;8.35;;;2.55;;
50779;SDS011;36748;37.428;-121.972;2023-10-13T06:14:30;19.08;;;2.67;;
50779;SDS011;36748;37.428;-121.972;2023-10-13T06:17:15;17.10;;;2.58;;
50779;SDS011;36748;37.428;-121.972;2023-10-13T06:19:59;19.70;;;3.60;;
50779;SDS011;36748;37.428;-121.972;2023-10-13T06:22:46;13.65;;;2.97;;
50779;SDS011;36748;37.428;-121.972;2023-10-13T06:25:43;10.90;;;2.83;;
50779;SDS011;36748;37.428;-121.972;2023-10-13T06:28:33;18.42;;;3.55;;
50779;SDS011;36748;37.428;-121.972;2023-10-13T06:31:06;15.82;;;3.17;;
50779;SDS011;36748;37.428;-121.972;2023-10-13T06:33:36;12.25;;;2.80;;
50779;SDS011;36748;37.428;-121.972;2023-10-13T06:36:09;10.98;;;2.65;;
50779;SDS011;36748;37.428;-121.972;2023-10-13T06:38:35;9.82;;;2.65;;
50779;SDS011;36748;37.428;-121.972;2023-10-13T06:41:02;17.55;;;3.63;;
50779;SDS011;36748;37.428;-121.972;2023-10-13T06:43:35;14.27;;;2.45;;
50779;SDS011;36748;37.428;-121.972;2023-10-13T06:46:06;15.05;;;2.80;;
50779;SDS011;36748;37.428;-121.972;2023-10-13T06:48:33;21.05;;;2.88;;
50779;SDS011;36748;37.428;-121.972;2023-10-13T06:51:00;17.67;;;2.53;;
50779;SDS011;36748;37.428;-121.972;2023-10-13T06:53:31;10.43;;;2.53;;
50779;SDS011;36748;37.428;-121.972;2023-10-13T06:56:07;18.90;;;2.72;;
50779;SDS011;36748;37.428;-121.972;2023-10-13T06:58:34;16.63;;;3.00;;
50779;SDS011;36748;37.428;-121.972;2023-10-13T07:01:00;13.85;;;2.60;;
50779;SDS011;36748;37.428;-121.972;2023-10-13T07:03:32;13.68;;;3.42;;
50779;SDS011;36748;37.428;-121.972;2023-10-13T07:05:58;15.10;;;3.10;;
50779;SDS011;36748;37.428;-121.972;2023-10-13T07:08:25;14.00;;;3.08;;
50779;SDS011;36748;37.428;-121.972;2023-10-13T07:10:54;10.35;;;2.92;;
50779;SDS011;36748;37.428;-121.972;2023-10-13T07:13:47;13.35;;;3.42;;
50779;SDS011;36748;37.428;-121.972;2023-10-13T07:16:17;16.75;;;3.40;;
50779;SDS011;36748;37.428;-121.972;2023-10-13T07:18:44;14.00;;;3.30;;
50779;SDS011;36748;37.428;-121.972;2023-10-13T07:21:20;12.32;;;3.10;;
50779;SDS011;36748;37.428;-121.972;2023-10-13T07:23:56;16.58;;;3.10;;
50779;SDS011;36748;37.428;-121.972;2023-10-13T07:26:36;11.63;;;3.03;;
50779;SDS011;36748;37.428;-121.972;2023-10-13T07:29:11;12.73;;;3.25;;
50779;SDS011;36748;37.428;-121.972;2023-10-13T07:31:37;18.15;;;3.55;;
50779;SDS011;36748;37.428;-121.972;2023-10-13T07:34:06;11.52;;;2.72;;
50779;SDS011;36748;37.428;-121.972;2023-10-13T07:36:51;6.78;;;2.08;;
50779;SDS011;36748;37.428;-121.972;2023-10-13T07:39:30;6.40;;;2.60;;
50779;SDS011;36748;37.428;-121.972;2023-10-13T07:42:00;9.07;;;2.55;;
50779;SDS011;36748;37.428;-121.972;2023-10-13T07:44:29;8.18;;;2.38;;
50779;SDS011;36748;37.428;-121.972;2023-10-13T07:47:01;11.18;;;2.58;;
50779;SDS011;36748;37.428;-121.972;2023-10-13T07:49:30;8.68;;;2.55;;
50779;SDS011;36748;37.428;-121.972;2023-10-13T07:51:58;11.00;;;2.60;;
50779;SDS011;36748;37.428;-121.972;2023-10-13T07:54:26;8.70;;;2.58;;
50779;SDS011;36748;37.428;-121.972;2023-10-13T07:56:53;5.75;;;2.05;;
50779;SDS011;36748;37.428;-121.972;2023-10-13T07:59:20;9.07;;;3.28;;
50779;SDS011;36748;37.428;-121.972;2023-10-13T08:01:49;9.60;;;2.60;;
50779;SDS011;36748;37.428;-121.972;2023-10-13T08:04:37;7.93;;;2.45;;
50779;SDS011;36748;37.428;-121.972;2023-10-13T08:07:03;6.10;;;2.20;;
50779;SDS011;36748;37.428;-121.972;2023-10-13T08:09:39;5.55;;;2.10;;
50779;SDS011;36748;37.428;-121.972;2023-10-13T08:12:06;5.70;;;2.47;;
50779;SDS011;36748;37.428;-121.972;2023-10-13T08:14:37;8.93;;;2.55;;
50779;SDS011;36748;37.428;-121.972;2023-10-13T08:17:06;7.85;;;2.55;;
50779;SDS011;36748;37.428;-121.972;2023-10-13T08:19:34;9.55;;;2.28;;
50779;SDS011;36748;37.428;-121.972;2023-10-13T08:22:13;8.50;;;2.60;;
50779;SDS011;36748;37.428;-121.972;2023-10-13T08:24:46;6.40;;;2.28;;
50779;SDS011;36748;37.428;-121.972;2023-10-13T08:27:14;7.90;;;2.33;;
50779;SDS011;36748;37.428;-121.972;2023-10-13T08:29:58;4.88;;;2.17;;
50779;SDS011;36748;37.428;-121.972;2023-10-13T08:32:25;6.03;;;2.00;;
50779;SDS011;36748;37.428;-121.972;2023-10-13T08:37:24;4.05;;;2.00;;
50779;SDS011;36748;37.428;-121.972;2023-10-13T08:39:59;5.22;;;1.95;;
50779;SDS011;36748;37.428;-121.972;2023-10-13T08:42:29;4.68;;;2.15;;
50779;SDS011;36748;37.428;-121.972;2023-10-13T08:45:09;7.90;;;2.15;;
50779;SDS011;36748;37.428;-121.972;2023-10-13T08:47:52;4.38;;;1.80;;
50779;SDS011;36748;37.428;-121.972;2023-10-13T08:53:23;7.30;;;2.05;;
50779;SDS011;36748;37.428;-121.972;2023-10-13T08:56:08;5.85;;;2.08;;
50779;SDS011;36748;37.428;-121.972;2023-10-13T08:59:01;5.80;;;2.30;;
50779;SDS011;36748;37.428;-121.972;2023-10-13T09:01:37;6.88;;;2.40;;
50779;SDS011;36748;37.428;-121.972;2023-10-13T09:04:25;4.47;;;2.05;;
50779;SDS011;36748;37.428;-121.972;2023-10-13T09:07:00;3.70;;;1.95;;
50779;SDS011;36748;37.428;-121.972;2023-10-13T09:12:28;5.43;;;1.95;;
50779;SDS011;36748;37.428;-121.972;2023-10-13T09:14:59;2.40;;;1.50;;
50779;SDS011;36748;37.428;-121.972;2023-10-13T09:17:52;4.15;;;1.77;;
50779;SDS011;36748;37.428;-121.972;2023-10-13T09:20:38;2.97;;;1.60;;
50779;SDS011;36748;37.428;-121.972;2023-10-13T09:23:14;4.72;;;1.77;;
50779;SDS011;36748;37.428;-121.972;2023-10-13T09:25:50;3.72;;;1.88;;
50779;SDS011;36748;37.428;-121.972;2023-10-13T09:28:23;4.85;;;1.90;;
50779;SDS011;36748;37.428;-121.972;2023-10-13T09:30:52;4.40;;;2.05;;
50779;SDS011;36748;37.428;-121.972;2023-10-13T09:33:23;4.15;;;1.80;;
50779;SDS011;36748;37.428;-121.972;2023-10-13T09:36:06;4.60;;;1.73;;
50779;SDS011;36748;37.428;-121.972;2023-10-13T09:38:36;3.67;;;1.73;;
50779;SDS011;36748;37.428;-121.972;2023-10-13T09:41:06;3.92;;;1.90;;
50779;SDS011;36748;37.428;-121.972;2023-10-13T09:43:51;3.13;;;1.83;;
50779;SDS011;36748;37.428;-121.972;2023-10-13T09:46:23;4.13;;;1.90;;
50779;SDS011;36748;37.428;-121.972;2023-10-13T09:48:57;4.35;;;1.92;;
50779;SDS011;36748;37.428;-121.972;2023-10-13T09:51:33;7.40;;;1.83;;
50779;SDS011;36748;37.428;-121.972;2023-10-13T09:54:05;3.70;;;1.88;;
50779;SDS011;36748;37.428;-121.972;2023-10-13T09:59:55;5.03;;;1.70;;
50779;SDS011;36748;37.428;-121.972;2023-10-13T10:02:34;2.65;;;1.63;;
50779;SDS011;36748;37.428;-121.972;2023-10-13T10:07:38;4.35;;;1.60;;
50779;SDS011;36748;37.428;-121.972;2023-10-13T10:10:09;3.92;;;1.92;;
50779;SDS011;36748;37.428;-121.972;2023-10-13T10:12:47;3.80;;;1.80;;
50779;SDS011;36748;37.428;-121.972;2023-10-13T10:15:24;4.25;;;1.80;;
50779;SDS011;36748;37.428;-121.972;2023-10-13T10:17:59;5.20;;;1.90;;
50779;SDS011;36748;37.428;-121.972;2023-10-13T10:20:33;4.45;;;2.13;;
50779;SDS011;36748;37.428;-121.972;2023-10-13T10:23:12;5.57;;;2.30;;
50779;SDS011;36748;37.428;-121.972;2023-10-13T10:25:49;3.45;;;1.45;;
50779;SDS011;36748;37.428;-121.972;2023-10-13T10:28:16;3.20;;;1.65;;
50779;SDS011;36748;37.428;-121.972;2023-10-13T10:30:44;2.58;;;1.40;;
50779;SDS011;36748;37.428;-121.972;2023-10-13T10:33:11;3.45;;;1.55;;
50779;SDS011;36748;37.428;-121.972;2023-10-13T10:35:42;3.42;;;1.63;;
50779;SDS011;36748;37.428;-121.972;2023-10-13T10:38:18;2.22;;;1.60;;
50779;SDS011;36748;37.428;-121.972;2023-10-13T10:41:00;3.35;;;1.63;;
50779;SDS011;36748;37.428;-121.972;2023-10-13T10:48:51;3.10;;;1.65;;
50779;SDS011;36748;37.428;-121.972;2023-10-13T10:51:21;3.45;;;1.73;;
50779;SDS011;36748;37.428;-121.972;2023-10-13T10:53:48;2.28;;;1.40;;
50779;SDS011;36748;37.428;-121.972;2023-10-13T10:56:16;3.83;;;1.48;;
50779;SDS011;36748;37.428;-121.972;2023-10-13T10:59:03;3.65;;;1.77;;
50779;SDS011;36748;37.428;-121.972;2023-10-13T11:01:31;2.13;;;1.40;;
50779;SDS011;36748;37.428;-121.972;2023-10-13T11:04:13;4.25;;;1.50;;
50779;SDS011;36748;37.428;-121.972;2023-10-13T11:06:50;3.78;;;1.48;;
50779;SDS011;36748;37.428;-121.972;2023-10-13T11:12:17;3.15;;;1.90;;
50779;SDS011;36748;37.428;-121.972;2023-10-13T11:14:48;3.08;;;1.58;;
50779;SDS011;36748;37.428;-121.972;2023-10-13T11:17:41;2.70;;;1.63;;
50779;SDS011;36748;37.428;-121.972;2023-10-13T11:20:11;3.08;;;1.80;;
50779;SDS011;36748;37.428;-121.972;2023-10-13T11:23:10;4.57;;;1.88;;
50779;SDS011;36748;37.428;-121.972;2023-10-13T11:25:39;4.93;;;1.80;;
50779;SDS011;36748;37.428;-121.972;2023-10-13T11:28:12;2.88;;;1.65;;
50779;SDS011;36748;37.428;-121.972;2023-10-13T11:30:48;3.83;;;1.50;;
50779;SDS011;36748;37.428;-121.972;2023-10-13T11:33:15;5.18;;;1.65;;
50779;SDS011;36748;37.428;-121.972;2023-10-13T11:35:55;2.60;;;1.63;;
50779;SDS011;36748;37.428;-121.972;2023-10-13T11:38:23;3.97;;;1.48;;
50779;SDS011;36748;37.428;-121.972;2023-10-13T11:40:58;1.95;;;1.35;;
50779;SDS011;36748;37.428;-121.972;2023-10-13T11:46:11;2.33;;;1.23;;
50779;SDS011;36748;37.428;-121.972;2023-10-13T11:48:39;3.53;;;1.60;;
50779;SDS011;36748;37.428;-121.972;2023-10-13T11:51:07;2.88;;;1.48;;
50779;SDS011;36748;37.428;-121.972;2023-10-13T11:53:52;2.45;;;1.50;;
50779;SDS011;36748;37.428;-121.972;2023-10-13T11:56:21;2.60;;;1.40;;
50779;SDS011;36748;37.428;-121.972;2023-10-13T11:58:48;2.20;;;1.65;;
50779;SDS011;36748;37.428;-121.972;2023-10-13T12:01:14;2.22;;;1.30;;
50779;SDS011;36748;37.428;-121.972;2023-10-13T12:03:44;2.28;;;1.40;;
50779;SDS011;36748;37.428;-121.972;2023-10-13T12:06:30;2.25;;;1.33;;
50779;SDS011;36748;37.428;-121.972;2023-10-13T12:09:09;3.35;;;1.48;;
50779;SDS011;36748;37.428;-121.972;2023-10-13T12:11:45;2.25;;;1.58;;
50779;SDS011;36748;37.428;-121.972;2023-10-13T12:14:20;3.80;;;1.80;;
50779;SDS011;36748;37.428;-121.972;2023-10-13T12:17:02;4.72;;;1.58;;
50779;SDS011;36748;37.428;-121.972;2023-10-13T12:19:29;2.45;;;1.50;;
50779;SDS011;36748;37.428;-121.972;2023-10-13T12:21:56;2.28;;;1.55;;
50779;SDS011;36748;37.428;-121.972;2023-10-13T12:24:27;2.38;;;1.70;;
50779;SDS011;36748;37.428;-121.972;2023-10-13T12:27:16;2.30;;;1.35;;
50779;SDS011;36748;37.428;-121.972;2023-10-13T12:29:51;3.88;;;1.95;;
50779;SDS011;36748;37.428;-121.972;2023-10-13T12:32:18;2.78;;;1.50;;
50779;SDS011;36748;37.428;-121.972;2023-10-13T12:34:50;1.70;;;1.40;;
50779;SDS011;36748;37.428;-121.972;2023-10-13T12:37:29;2.33;;;1.63;;
50779;SDS011;36748;37.428;-121.972;2023-10-13T12:40:09;2.95;;;1.80;;
50779;SDS011;36748;37.428;-121.972;2023-10-13T12:42:57;2.58;;;1.63;;
50779;SDS011;36748;37.428;-121.972;2023-10-13T12:45:43;2.22;;;1.30;;
50779;SDS011;36748;37.428;-121.972;2023-10-13T12:48:28;2.28;;;1.45;;
50779;SDS011;36748;37.428;-121.972;2023-10-13T12:51:13;2.38;;;1.50;;
50779;SDS011;36748;37.428;-121.972;2023-10-13T12:53:49;2.42;;;1.45;;
50779;SDS011;36748;37.428;-121.972;2023-10-13T12:56:16;2.72;;;1.50;;
50779;SDS011;36748;37.428;-121.972;2023-10-13T12:58:51;2.58;;;1.50;;
50779;SDS011;36748;37.428;-121.972;2023-10-13T13:01:18;4.60;;;1.50;;
50779;SDS011;36748;37.428;-121.972;2023-10-13T13:03:48;2.53;;;1.20;;
50779;SDS011;36748;37.428;-121.972;2023-10-13T13:06:21;4.20;;;1.65;;
50779;SDS011;36748;37.428;-121.972;2023-10-13T13:08:56;3.50;;;1.33;;
50779;SDS011;36748;37.428;-121.972;2023-10-13T13:11:23;3.47;;;1.55;;
50779;SDS011;36748;37.428;-121.972;2023-10-13T13:13:50;2.95;;;1.77;;
50779;SDS011;36748;37.428;-121.972;2023-10-13T13:16:17;2.95;;;1.55;;
50779;SDS011;36748;37.428;-121.972;2023-10-13T13:18:45;4.50;;;1.90;;
50779;SDS011;36748;37.428;-121.972;2023-10-13T13:21:11;3.70;;;1.50;;
50779;SDS011;36748;37.428;-121.972;2023-10-13T13:23:45;3.20;;;1.70;;
50779;SDS011;36748;37.428;-121.972;2023-10-13T13:26:12;2.38;;;1.40;;
50779;SDS011;36748;37.428;-121.972;2023-10-13T13:28:43;1.55;;;1.10;;
50779;SDS011;36748;37.428;-121.972;2023-10-13T13:31:19;2.38;;;1.20;;
50779;SDS011;36748;37.428;-121.972;2023-10-13T13:33:51;2.63;;;1.45;;
50779;SDS011;36748;37.428;-121.972;2023-10-13T13:36:18;2.20;;;1.58;;
50779;SDS011;36748;37.428;-121.972;2023-10-13T13:38:44;2.83;;;1.45;;
50779;SDS011;36748;37.428;-121.972;2023-10-13T13:41:20;3.05;;;1.58;;
50779;SDS011;36748;37.428;-121.972;2023-10-13T13:43:47;1.88;;;1.15;;
50779;SDS011;36748;37.428;-121.972;2023-10-13T13:46:18;2.92;;;1.33;;
50779;SDS011;36748;37.428;-121.972;2023-10-13T13:48:50;2.30;;;1.30;;
50779;SDS011;36748;37.428;-121.972;2023-10-13T13:51:23;5.28;;;1.40;;
50779;SDS011;36748;37.428;-121.972;2023-10-13T13:53:53;4.88;;;1.30;;
50779;SDS011;36748;37.428;-121.972;2023-10-13T13:56:20;7.78;;;1.27;;
50779;SDS011;36748;37.428;-121.972;2023-10-13T13:58:51;7.93;;;2.00;;
50779;SDS011;36748;37.428;-121.972;2023-10-13T14:01:32;7.57;;;2.85;;
50779;SDS011;36748;37.428;-121.972;2023-10-13T14:04:02;9.88;;;2.83;;
50779;SDS011;36748;37.428;-121.972;2023-10-13T14:06:31;11.40;;;2.92;;
50779;SDS011;36748;37.428;-121.972;2023-10-13T14:09:00;10.98;;;2.90;;
50779;SDS011;36748;37.428;-121.972;2023-10-13T14:11:39;10.73;;;3.00;;
50779;SDS011;36748;37.428;-121.972;2023-10-13T14:14:05;8.73;;;2.60;;
50779;SDS011;36748;37.428;-121.972;2023-10-13T14:16:41;7.47;;;2.55;;
50779;SDS011;36748;37.428;-121.972;2023-10-13T14:19:13;8.35;;;2.55;;
50779;SDS011;36748;37.428;-121.972;2023-10-13T14:22:05;7.43;;;2.70;;
50779;SDS011;36748;37.428;-121.972;2023-10-13T14:24:32;9.52;;;3.13;;
50779;SDS011;36748;37.428;-121.972;2023-10-13T14:27:01;7.28;;;2.40;;
50779;SDS011;36748;37.428;-121.972;2023-10-13T14:29:37;10.65;;;2.63;;
50779;SDS011;36748;37.428;-121.972;2023-10-13T14:32:11;4.93;;;2.10;;
50779;SDS011;36748;37.428;-121.972;2023-10-13T14:34:42;9.55;;;2.50;;
50779;SDS011;36748;37.428;-121.972;2023-10-13T14:37:09;7.43;;;2.25;;
50779;SDS011;36748;37.428;-121.972;2023-10-13T14:39:41;5.47;;;1.90;;
50779;SDS011;36748;37.428;-121.972;2023-10-13T14:42:07;5.57;;;2.33;;
50779;SDS011;36748;37.428;-121.972;2023-10-13T14:44:34;9.10;;;2.45;;
50779;SDS011;36748;37.428;-121.972;2023-10-13T14:47:02;4.72;;;2.20;;
50779;SDS011;36748;37.428;-121.972;2023-10-13T14:49:31;9.95;;;2.63;;
50779;SDS011;36748;37.428;-121.972;2023-10-13T14:51:57;5.70;;;1.95;;
50779;SDS011;36748;37.428;-121.972;2023-10-13T14:54:26;6.18;;;1.90;;
50779;SDS011;36748;37.428;-121.972;2023-10-13T14:57:01;5.20;;;2.22;;
50779;SDS011;36748;37.428;-121.972;2023-10-13T14:59:28;8.98;;;2.00;;
50779;SDS011;36748;37.428;-121.972;2023-10-13T15:02:03;6.72;;;1.85;;
50779;SDS011;36748;37.428;-121.972;2023-10-13T15:04:30;8.68;;;2.30;;
50779;SDS011;36748;37.428;-121.972;2023-10-13T15:06:59;8.57;;;2.25;;
50779;SDS011;36748;37.428;-121.972;2023-10-13T15:09:29;4.88;;;1.77;;
50779;SDS011;36748;37.428;-121.972;2023-10-13T15:11:55;5.28;;;1.95;;
50779;SDS011;36748;37.428;-121.972;2023-10-13T15:14:21;6.75;;;2.78;;
50779;SDS011;36748;37.428;-121.972;2023-10-13T15:16:50;6.88;;;2.40;;